sensor_id;sensor_type;location;lat;lon;timestamp;pressure;altitude;pressure_sealevel;temperature;humidity
71938;BME280;59810;48.800;9.086;2023-03-13T00:00:27;97173.19;;;6.17;85.08
71938;BME280;59810;48.800;9.086;2023-03-13T00:02:52;97168.22;;;6.21;85.12
71938;BME280;59810;48.800;9.086;2023-03-13T00:05:18;97167.50;;;6.26;85.29
71938;BME280;59810;48.800;9.086;2023-03-13T00:07:43;97173.78;;;6.31;85.52
71938;BME280;59810;48.800;9.086;2023-03-13T00:10:11;97171.44;;;6.35;85.41
71938;BME280;59810;48.800;9.086;2023-03-13T00:12:36;97168.06;;;6.39;84.73
71938;BME280;59810;48.800;9.086;2023-03-13T00:15:02;97163.53;;;6.40;84.92
71938;BME280;59810;48.800;9.086;2023-03-13T00:17:27;97164.69;;;6.44;85.14
71938;BME280;59810;48.800;9.086;2023-03-13T00:19:53;97167.59;;;6.42;85.09
71938;BME280;59810;48.800;9.086;2023-03-13T00:22:20;97162.56;;;6.46;85.15
71938;BME280;59810;48.800;9.086;2023-03-13T00:24:45;97166.31;;;6.45;85.13
71938;BME280;59810;48.800;9.086;2023-03-13T00:27:11;97165.03;;;6.47;85.14
71938;BME280;59810;48.800;9.086;2023-03-13T00:29:36;97166.41;;;6.50;85.34
71938;BME280;59810;48.800;9.086;2023-03-13T00:32:02;97146.63;;;6.51;85.38
71938;BME280;59810;48.800;9.086;2023-03-13T00:34:27;97145.91;;;6.55;84.93
71938;BME280;59810;48.800;9.086;2023-03-13T00:36:53;97149.75;;;6.60;84.70
71938;BME280;59810;48.800;9.086;2023-03-13T00:39:19;97141.91;;;6.70;83.98
71938;BME280;59810;48.800;9.086;2023-03-13T00:41:45;97147.13;;;6.76;83.86
71938;BME280;59810;48.800;9.086;2023-03-13T00:44:10;97137.53;;;6.80;83.86
71938;BME280;59810;48.800;9.086;2023-03-13T00:46:36;97122.97;;;6.88;83.16
71938;BME280;59810;48.800;9.086;2023-03-13T00:49:02;97124.31;;;7.02;82.35
71938;BME280;59810;48.800;9.086;2023-03-13T00:51:28;97123.25;;;7.03;82.29
71938;BME280;59810;48.800;9.086;2023-03-13T00:53:55;97120.75;;;7.13;81.61
71938;BME280;59810;48.800;9.086;2023-03-13T00:56:21;97123.53;;;7.18;81.62
71938;BME280;59810;48.800;9.086;2023-03-13T00:58:48;97124.22;;;7.26;81.08
71938;BME280;59810;48.800;9.086;2023-03-13T01:01:23;97114.13;;;7.33;80.72
71938;BME280;59810;48.800;9.086;2023-03-13T01:03:52;97112.75;;;7.47;79.43
71938;BME280;59810;48.800;9.086;2023-03-13T01:06:20;97100.81;;;7.55;79.10
71938;BME280;59810;48.800;9.086;2023-03-13T01:08:46;97101.78;;;7.65;78.73
71938;BME280;59810;48.800;9.086;2023-03-13T01:11:17;97095.91;;;7.68;78.32
71938;BME280;59810;48.800;9.086;2023-03-13T01:13:45;97100.00;;;7.71;78.23
71938;BME280;59810;48.800;9.086;2023-03-13T01:16:17;97087.94;;;7.73;78.12
71938;BME280;59810;48.800;9.086;2023-03-13T01:18:48;97087.75;;;7.80;77.30
71938;BME280;59810;48.800;9.086;2023-03-13T01:21:15;97077.59;;;7.82;77.05
71938;BME280;59810;48.800;9.086;2023-03-13T01:23:43;97075.75;;;7.83;77.11
71938;BME280;59810;48.800;9.086;2023-03-13T01:26:08;97072.00;;;7.84;77.53
71938;BME280;59810;48.800;9.086;2023-03-13T01:28:35;97074.44;;;7.85;77.43
71938;BME280;59810;48.800;9.086;2023-03-13T01:31:13;97060.75;;;7.87;77.13
71938;BME280;59810;48.800;9.086;2023-03-13T01:33:39;97059.13;;;7.86;77.28
71938;BME280;59810;48.800;9.086;2023-03-13T01:36:07;97044.13;;;7.90;77.00
71938;BME280;59810;48.800;9.086;2023-03-13T01:38:33;97044.44;;;7.93;76.91
71938;BME280;59810;48.800;9.086;2023-03-13T01:40:59;97045.31;;;7.99;76.58
71938;BME280;59810;48.800;9.086;2023-03-13T01:43:29;97044.31;;;8.05;76.24
71938;BME280;59810;48.800;9.086;2023-03-13T01:51:57;97027.03;;;8.18;75.54
71938;BME280;59810;48.800;9.086;2023-03-13T01:54:29;97018.22;;;8.22;75.32
71938;BME280;59810;48.800;9.086;2023-03-13T01:57:14;97011.78;;;8.23;75.03
71938;BME280;59810;48.800;9.086;2023-03-13T01:59:54;97005.91;;;8.26;75.25
71938;BME280;59810;48.800;9.086;2023-03-13T02:02:21;96999.50;;;8.32;74.96
71938;BME280;59810;48.800;9.086;2023-03-13T02:04:51;97000.31;;;8.33;75.05
71938;BME280;59810;48.800;9.086;2023-03-13T02:07:20;96998.47;;;8.33;74.54
71938;BME280;59810;48.800;9.086;2023-03-13T02:09:49;96989.00;;;8.31;74.60
71938;BME280;59810;48.800;9.086;2023-03-13T02:12:30;96984.44;;;8.31;74.89
71938;BME280;59810;48.800;9.086;2023-03-13T02:15:00;96987.72;;;8.33;75.04
71938;BME280;59810;48.800;9.086;2023-03-13T02:17:28;96988.59;;;8.39;74.69
71938;BME280;59810;48.800;9.086;2023-03-13T02:19:53;96984.31;;;8.43;74.59
71938;BME280;59810;48.800;9.086;2023-03-13T02:27:56;96984.81;;;8.62;73.93
71938;BME280;59810;48.800;9.086;2023-03-13T02:30:23;96978.38;;;8.63;73.69
71938;BME280;59810;48.800;9.086;2023-03-13T02:32:49;96966.31;;;8.70;73.21
71938;BME280;59810;48.800;9.086;2023-03-13T02:37:45;96956.81;;;8.90;72.84
71938;BME280;59810;48.800;9.086;2023-03-13T02:40:15;96952.81;;;8.92;72.92
71938;BME280;59810;48.800;9.086;2023-03-13T02:42:44;96950.16;;;8.97;72.65
71938;BME280;59810;48.800;9.086;2023-03-13T02:45:13;96939.94;;;8.99;72.77
71938;BME280;59810;48.800;9.086;2023-03-13T02:47:39;96932.19;;;9.08;72.46
71938;BME280;59810;48.800;9.086;2023-03-13T02:50:05;96943.59;;;9.15;72.44
71938;BME280;59810;48.800;9.086;2023-03-13T02:52:37;96922.41;;;9.29;71.90
71938;BME280;59810;48.800;9.086;2023-03-13T02:55:13;96919.75;;;9.34;71.83
71938;BME280;59810;48.800;9.086;2023-03-13T02:57:41;96910.31;;;9.36;71.75
71938;BME280;59810;48.800;9.086;2023-03-13T03:00:08;96897.66;;;9.37;72.14
71938;BME280;59810;48.800;9.086;2023-03-13T03:02:36;96906.09;;;9.46;71.86
71938;BME280;59810;48.800;9.086;2023-03-13T03:05:02;96901.50;;;9.46;72.00
71938;BME280;59810;48.800;9.086;2023-03-13T03:07:28;96896.69;;;9.53;71.75
71938;BME280;59810;48.800;9.086;2023-03-13T03:09:54;96896.44;;;9.55;71.82
71938;BME280;59810;48.800;9.086;2023-03-13T03:12:19;96885.41;;;9.56;71.88
71938;BME280;59810;48.800;9.086;2023-03-13T03:14:44;96885.41;;;9.56;72.35
71938;BME280;59810;48.800;9.086;2023-03-13T03:17:10;96878.91;;;9.52;73.41
71938;BME280;59810;48.800;9.086;2023-03-13T03:19:35;96877.00;;;9.48;75.14
71938;BME280;59810;48.800;9.086;2023-03-13T03:22:01;96879.97;;;9.46;74.37
71938;BME280;59810;48.800;9.086;2023-03-13T03:24:26;96884.28;;;9.47;74.70
71938;BME280;59810;48.800;9.086;2023-03-13T03:26:51;96886.69;;;9.44;74.92
71938;BME280;59810;48.800;9.086;2023-03-13T03:29:17;96876.44;;;9.46;74.73
71938;BME280;59810;48.800;9.086;2023-03-13T03:31:43;96880.72;;;9.42;75.34
71938;BME280;59810;48.800;9.086;2023-03-13T03:34:08;96876.66;;;9.39;75.32
71938;BME280;59810;48.800;9.086;2023-03-13T03:36:33;96864.53;;;9.36;75.44
71938;BME280;59810;48.800;9.086;2023-03-13T03:38:59;96876.66;;;9.39;75.44
71938;BME280;59810;48.800;9.086;2023-03-13T03:41:24;96867.50;;;9.40;75.56
71938;BME280;59810;48.800;9.086;2023-03-13T03:43:50;96867.03;;;9.48;74.96
71938;BME280;59810;48.800;9.086;2023-03-13T03:46:16;96868.09;;;9.47;75.50
71938;BME280;59810;48.800;9.086;2023-03-13T03:48:41;96869.19;;;9.46;75.99
71938;BME280;59810;48.800;9.086;2023-03-13T03:51:07;96872.16;;;9.50;75.64
71938;BME280;59810;48.800;9.086;2023-03-13T03:53:32;96864.34;;;9.48;75.83
71938;BME280;59810;48.800;9.086;2023-03-13T03:55:58;96870.06;;;9.67;75.95
71938;BME280;59810;48.800;9.086;2023-03-13T03:58:23;96880.06;;;9.72;76.20
71938;BME280;59810;48.800;9.086;2023-03-13T04:00:49;96867.22;;;9.89;76.16
71938;BME280;59810;48.800;9.086;2023-03-13T04:03:14;96868.56;;;9.86;76.87
71938;BME280;59810;48.800;9.086;2023-03-13T04:05:41;96862.38;;;9.96;76.99
71938;BME280;59810;48.800;9.086;2023-03-13T04:08:07;96858.63;;;10.07;76.97
71938;BME280;59810;48.800;9.086;2023-03-13T04:10:32;96850.03;;;10.15;77.34
71938;BME280;59810;48.800;9.086;2023-03-13T04:12:58;96849.00;;;10.32;76.88
71938;BME280;59810;48.800;9.086;2023-03-13T04:15:25;96851.72;;;10.32;77.22
71938;BME280;59810;48.800;9.086;2023-03-13T04:17:51;96853.38;;;10.48;77.30
71938;BME280;59810;48.800;9.086;2023-03-13T04:20:16;96842.84;;;10.51;77.33
71938;BME280;59810;48.800;9.086;2023-03-13T04:22:42;96843.66;;;10.47;77.90
71938;BME280;59810;48.800;9.086;2023-03-13T04:25:08;96846.63;;;10.50;78.20
71938;BME280;59810;48.800;9.086;2023-03-13T04:27:33;96840.41;;;10.55;78.02
71938;BME280;59810;48.800;9.086;2023-03-13T04:29:59;96844.47;;;10.63;78.32
71938;BME280;59810;48.800;9.086;2023-03-13T04:32:25;96837.44;;;10.67;78.10
71938;BME280;59810;48.800;9.086;2023-03-13T04:34:50;96831.22;;;10.71;78.19
71938;BME280;59810;48.800;9.086;2023-03-13T04:37:16;96820.44;;;10.71;78.02
71938;BME280;59810;48.800;9.086;2023-03-13T04:39:41;96817.22;;;10.79;78.19
71938;BME280;59810;48.800;9.086;2023-03-13T04:42:08;96835.31;;;10.74;78.58
71938;BME280;59810;48.800;9.086;2023-03-13T04:44:34;96833.97;;;10.76;78.69
71938;BME280;59810;48.800;9.086;2023-03-13T04:46:59;96832.88;;;10.77;78.76
71938;BME280;59810;48.800;9.086;2023-03-13T04:49:25;96838.25;;;10.72;79.27
71938;BME280;59810;48.800;9.086;2023-03-13T04:51:50;96823.69;;;10.73;79.05
71938;BME280;59810;48.800;9.086;2023-03-13T04:54:16;96827.44;;;10.72;79.21
71938;BME280;59810;48.800;9.086;2023-03-13T04:56:41;96819.91;;;10.74;79.07
71938;BME280;59810;48.800;9.086;2023-03-13T04:59:06;96826.13;;;10.75;79.14
71938;BME280;59810;48.800;9.086;2023-03-13T05:01:32;96818.28;;;10.83;78.32
71938;BME280;59810;48.800;9.086;2023-03-13T05:03:57;96805.88;;;10.82;78.65
71938;BME280;59810;48.800;9.086;2023-03-13T05:06:23;96825.84;;;10.81;78.71
71938;BME280;59810;48.800;9.086;2023-03-13T05:08:48;96815.59;;;10.78;78.95
71938;BME280;59810;48.800;9.086;2023-03-13T05:11:16;96822.06;;;10.87;78.14
71938;BME280;59810;48.800;9.086;2023-03-13T05:13:41;96800.19;;;10.89;78.29
71938;BME280;59810;48.800;9.086;2023-03-13T05:16:09;96811.25;;;10.93;77.81
71938;BME280;59810;48.800;9.086;2023-03-13T05:18:35;96810.72;;;10.85;78.11
71938;BME280;59810;48.800;9.086;2023-03-13T05:21:01;96815.03;;;10.81;78.41
71938;BME280;59810;48.800;9.086;2023-03-13T05:23:26;96828.81;;;10.85;78.12
71938;BME280;59810;48.800;9.086;2023-03-13T05:25:52;96825.84;;;10.81;78.27
71938;BME280;59810;48.800;9.086;2023-03-13T05:28:17;96830.44;;;10.81;78.61
71938;BME280;59810;48.800;9.086;2023-03-13T05:30:45;96827.47;;;10.82;78.33
71938;BME280;59810;48.800;9.086;2023-03-13T05:33:10;96806.94;;;10.91;77.75
71938;BME280;59810;48.800;9.086;2023-03-13T05:35:36;96822.31;;;10.96;77.66
71938;BME280;59810;48.800;9.086;2023-03-13T05:38:01;96806.41;;;10.89;78.22
71938;BME280;59810;48.800;9.086;2023-03-13T05:40:26;96804.22;;;10.91;77.99
71938;BME280;59810;48.800;9.086;2023-03-13T05:42:52;96793.44;;;10.91;77.91
71938;BME280;59810;48.800;9.086;2023-03-13T05:45:17;96812.34;;;10.91;77.89
71938;BME280;59810;48.800;9.086;2023-03-13T05:47:43;96803.41;;;10.91;78.01
71938;BME280;59810;48.800;9.086;2023-03-13T05:50:09;96796.41;;;10.90;78.31
71938;BME280;59810;48.800;9.086;2023-03-13T05:52:37;96807.72;;;10.97;78.04
71938;BME280;59810;48.800;9.086;2023-03-13T05:55:02;96812.84;;;10.99;78.15
71938;BME280;59810;48.800;9.086;2023-03-13T05:57:27;96799.63;;;10.97;78.53
71938;BME280;59810;48.800;9.086;2023-03-13T05:59:53;96786.66;;;10.94;78.42
71938;BME280;59810;48.800;9.086;2023-03-13T06:02:18;96793.41;;;11.02;78.13
71938;BME280;59810;48.800;9.086;2023-03-13T06:04:47;96803.94;;;10.98;78.23
71938;BME280;59810;48.800;9.086;2023-03-13T06:07:13;96804.75;;;10.94;78.39
71938;BME280;59810;48.800;9.086;2023-03-13T06:09:38;96805.31;;;10.96;78.57
71938;BME280;59810;48.800;9.086;2023-03-13T06:12:08;96813.13;;;10.92;78.63
71938;BME280;59810;48.800;9.086;2023-03-13T06:14:34;96813.16;;;10.87;79.00
71938;BME280;59810;48.800;9.086;2023-03-13T06:17:00;96820.69;;;10.90;78.84
71938;BME280;59810;48.800;9.086;2023-03-13T06:19:25;96819.63;;;10.91;78.75
71938;BME280;59810;48.800;9.086;2023-03-13T06:21:51;96818.81;;;10.90;79.09
71938;BME280;59810;48.800;9.086;2023-03-13T06:24:16;96825.56;;;10.93;78.65
71938;BME280;59810;48.800;9.086;2023-03-13T06:26:42;96821.75;;;11.04;78.42
71938;BME280;59810;48.800;9.086;2023-03-13T06:29:09;96820.16;;;11.08;78.32
71938;BME280;59810;48.800;9.086;2023-03-13T06:31:38;96824.72;;;11.18;77.83
71938;BME280;59810;48.800;9.086;2023-03-13T06:34:07;96813.91;;;11.18;78.36
71938;BME280;59810;48.800;9.086;2023-03-13T06:36:32;96812.28;;;11.17;78.19
71938;BME280;59810;48.800;9.086;2023-03-13T06:38:58;96810.38;;;11.22;78.56
71938;BME280;59810;48.800;9.086;2023-03-13T06:41:23;96816.06;;;11.21;78.36
71938;BME280;59810;48.800;9.086;2023-03-13T06:43:48;96815.53;;;11.19;78.45
71938;BME280;59810;48.800;9.086;2023-03-13T06:46:17;96813.91;;;11.18;78.81
71938;BME280;59810;48.800;9.086;2023-03-13T06:48:43;96816.88;;;11.16;79.25
71938;BME280;59810;48.800;9.086;2023-03-13T06:51:11;96822.81;;;11.18;78.93
71938;BME280;59810;48.800;9.086;2023-03-13T06:53:37;96827.97;;;11.20;78.80
71938;BME280;59810;48.800;9.086;2023-03-13T06:56:02;96837.66;;;11.31;78.66
71938;BME280;59810;48.800;9.086;2023-03-13T06:58:28;96842.00;;;11.27;78.96
71938;BME280;59810;48.800;9.086;2023-03-13T07:00:53;96841.44;;;11.25;79.15
71938;BME280;59810;48.800;9.086;2023-03-13T07:03:18;96843.88;;;11.27;79.17
71938;BME280;59810;48.800;9.086;2023-03-13T07:05:44;96844.94;;;11.31;79.24
71938;BME280;59810;48.800;9.086;2023-03-13T07:08:09;96824.66;;;11.33;78.80
71938;BME280;59810;48.800;9.086;2023-03-13T07:10:34;96845.75;;;11.31;79.47
71938;BME280;59810;48.800;9.086;2023-03-13T07:13:02;96837.66;;;11.31;79.34
71938;BME280;59810;48.800;9.086;2023-03-13T07:15:27;96837.09;;;11.44;78.55
71938;BME280;59810;48.800;9.086;2023-03-13T07:17:55;96840.63;;;11.40;79.11
71938;BME280;59810;48.800;9.086;2023-03-13T07:20:21;96836.84;;;11.41;79.22
71938;BME280;59810;48.800;9.086;2023-03-13T07:22:50;96823.84;;;11.43;79.23
71938;BME280;59810;48.800;9.086;2023-03-13T07:25:15;96825.69;;;11.58;78.65
71938;BME280;59810;48.800;9.086;2023-03-13T07:27:41;96831.09;;;11.58;78.95
71938;BME280;59810;48.800;9.086;2023-03-13T07:30:06;96827.31;;;11.59;78.90
71938;BME280;59810;48.800;9.086;2023-03-13T07:32:32;96821.66;;;11.55;78.77
71938;BME280;59810;48.800;9.086;2023-03-13T07:34:58;96814.91;;;11.52;79.56
71938;BME280;59810;48.800;9.086;2023-03-13T07:37:23;96817.88;;;11.51;79.57
71938;BME280;59810;48.800;9.086;2023-03-13T07:39:48;96816.47;;;11.64;79.08
71938;BME280;59810;48.800;9.086;2023-03-13T07:42:19;96823.78;;;11.63;79.16
71938;BME280;59810;48.800;9.086;2023-03-13T07:44:45;96810.25;;;11.63;79.11
71938;BME280;59810;48.800;9.086;2023-03-13T07:47:10;96804.28;;;11.66;79.02
71938;BME280;59810;48.800;9.086;2023-03-13T07:49:36;96805.66;;;11.64;79.12
71938;BME280;59810;48.800;9.086;2023-03-13T07:52:05;96814.00;;;11.67;78.97
71938;BME280;59810;48.800;9.086;2023-03-13T07:54:30;96791.56;;;11.77;78.68
71938;BME280;59810;48.800;9.086;2023-03-13T07:56:56;96779.63;;;11.88;78.39
71938;BME280;59810;48.800;9.086;2023-03-13T07:59:21;96778.47;;;11.99;77.89
71938;BME280;59810;48.800;9.086;2023-03-13T08:01:47;96768.16;;;12.01;77.84
71938;BME280;59810;48.800;9.086;2023-03-13T08:04:12;96763.22;;;12.13;77.09
71938;BME280;59810;48.800;9.086;2023-03-13T08:06:40;96765.88;;;12.24;76.64
71938;BME280;59810;48.800;9.086;2023-03-13T08:09:08;96754.47;;;12.27;76.43
71938;BME280;59810;48.800;9.086;2023-03-13T08:11:34;96739.28;;;12.31;76.30
71938;BME280;59810;48.800;9.086;2023-03-13T08:14:00;96737.09;;;12.38;76.36
71938;BME280;59810;48.800;9.086;2023-03-13T08:16:28;96740.25;;;12.45;76.07
71938;BME280;59810;48.800;9.086;2023-03-13T08:18:55;96741.22;;;12.59;74.79
71938;BME280;59810;48.800;9.086;2023-03-13T08:21:29;96743.28;;;12.67;74.49
71938;BME280;59810;48.800;9.086;2023-03-13T08:24:00;96738.44;;;12.69;74.76
71938;BME280;59810;48.800;9.086;2023-03-13T08:26:30;96737.06;;;12.72;74.54
71938;BME280;59810;48.800;9.086;2023-03-13T08:28:58;96738.78;;;12.87;73.23
71938;BME280;59810;48.800;9.086;2023-03-13T08:31:29;96741.38;;;12.97;73.38
71938;BME280;59810;48.800;9.086;2023-03-13T08:33:55;96754.38;;;13.00;73.29
71938;BME280;59810;48.800;9.086;2023-03-13T08:36:23;96750.84;;;12.99;72.95
71938;BME280;59810;48.800;9.086;2023-03-13T08:38:53;96725.34;;;13.05;72.58
71938;BME280;59810;48.800;9.086;2023-03-13T08:41:24;96728.50;;;13.13;71.92
71938;BME280;59810;48.800;9.086;2023-03-13T08:43:54;96734.16;;;13.16;72.07
71938;BME280;59810;48.800;9.086;2023-03-13T08:46:20;96741.72;;;13.19;71.79
71938;BME280;59810;48.800;9.086;2023-03-13T08:48:53;96748.72;;;13.25;71.41
71938;BME280;59810;48.800;9.086;2023-03-13T08:51:24;96754.19;;;13.20;71.22
71938;BME280;59810;48.800;9.086;2023-03-13T08:53:50;96744.66;;;13.23;71.07
71938;BME280;59810;48.800;9.086;2023-03-13T08:56:17;96753.56;;;13.28;70.98
71938;BME280;59810;48.800;9.086;2023-03-13T08:58:54;96748.59;;;13.35;70.79
71938;BME280;59810;48.800;9.086;2023-03-13T09:01:21;96747.00;;;13.34;70.46
71938;BME280;59810;48.800;9.086;2023-03-13T09:03:47;96748.25;;;13.42;70.29
71938;BME280;59810;48.800;9.086;2023-03-13T09:06:16;96753.09;;;13.45;70.46
71938;BME280;59810;48.800;9.086;2023-03-13T09:08:41;96754.72;;;13.46;70.63
71938;BME280;59810;48.800;9.086;2023-03-13T09:11:09;96750.31;;;13.50;70.41
71938;BME280;59810;48.800;9.086;2023-03-13T09:13:37;96750.03;;;13.52;69.89
71938;BME280;59810;48.800;9.086;2023-03-13T09:16:06;96743.50;;;13.53;69.93
71938;BME280;59810;48.800;9.086;2023-03-13T09:18:32;96742.91;;;13.56;70.15
71938;BME280;59810;48.800;9.086;2023-03-13T09:20:58;96746.06;;;13.63;69.96
71938;BME280;59810;48.800;9.086;2023-03-13T09:23:25;96740.75;;;13.77;69.38
71938;BME280;59810;48.800;9.086;2023-03-13T09:25:54;96750.16;;;13.84;69.00
71938;BME280;59810;48.800;9.086;2023-03-13T09:28:21;96747.34;;;13.89;68.55
71938;BME280;59810;48.800;9.086;2023-03-13T09:30:46;96760.56;;;13.77;69.27
71938;BME280;59810;48.800;9.086;2023-03-13T09:33:15;96759.16;;;13.80;69.17
71938;BME280;59810;48.800;9.086;2023-03-13T09:35:40;96758.22;;;13.89;68.30
71938;BME280;59810;48.800;9.086;2023-03-13T09:38:06;96757.19;;;13.85;68.88
71938;BME280;59810;48.800;9.086;2023-03-13T09:40:38;96769.22;;;13.79;69.06
71938;BME280;59810;48.800;9.086;2023-03-13T09:43:24;96772.44;;;13.81;69.06
71938;BME280;59810;48.800;9.086;2023-03-13T09:46:01;96778.75;;;13.95;68.37
71938;BME280;59810;48.800;9.086;2023-03-13T09:48:42;96772.91;;;14.07;67.88
71938;BME280;59810;48.800;9.086;2023-03-13T09:51:27;96752.94;;;14.17;67.48
71938;BME280;59810;48.800;9.086;2023-03-13T09:56:44;96746.97;;;14.52;66.16
71938;BME280;59810;48.800;9.086;2023-03-13T10:01:37;96724.81;;;14.64;65.36
71938;BME280;59810;48.800;9.086;2023-03-13T10:06:45;96724.97;;;14.54;65.41
71938;BME280;59810;48.800;9.086;2023-03-13T10:09:28;96733.19;;;14.49;65.20
71938;BME280;59810;48.800;9.086;2023-03-13T10:12:10;96729.16;;;14.46;65.44
71938;BME280;59810;48.800;9.086;2023-03-13T10:14:42;96723.13;;;14.49;65.26
71938;BME280;59810;48.800;9.086;2023-03-13T10:17:37;96722.09;;;14.64;64.53
71938;BME280;59810;48.800;9.086;2023-03-13T10:22:35;96713.75;;;14.88;63.62
71938;BME280;59810;48.800;9.086;2023-03-13T10:25:17;96705.63;;;15.15;62.48
71938;BME280;59810;48.800;9.086;2023-03-13T10:27:47;96699.31;;;15.34;62.07
71938;BME280;59810;48.800;9.086;2023-03-13T10:30:22;96708.16;;;15.67;61.40
71938;BME280;59810;48.800;9.086;2023-03-13T10:32:49;96709.44;;;15.83;61.10
71938;BME280;59810;48.800;9.086;2023-03-13T10:35:30;96706.63;;;16.10;59.62
71938;BME280;59810;48.800;9.086;2023-03-13T10:38:07;96705.09;;;16.40;59.45
71938;BME280;59810;48.800;9.086;2023-03-13T10:40:33;96700.16;;;16.65;57.66
71938;BME280;59810;48.800;9.086;2023-03-13T10:43:12;96699.75;;;16.58;58.42
71938;BME280;59810;48.800;9.086;2023-03-13T10:45:37;96691.31;;;16.59;57.85
71938;BME280;59810;48.800;9.086;2023-03-13T10:48:29;96696.50;;;16.69;57.78
71938;BME280;59810;48.800;9.086;2023-03-13T10:50:55;96695.94;;;16.81;57.93
71938;BME280;59810;48.800;9.086;2023-03-13T10:56:12;96677.09;;;16.93;56.78
71938;BME280;59810;48.800;9.086;2023-03-13T10:59:14;96668.47;;;17.08;56.16
71938;BME280;59810;48.800;9.086;2023-03-13T11:01:44;96666.56;;;17.18;55.96
71938;BME280;59810;48.800;9.086;2023-03-13T11:04:39;96676.13;;;17.46;55.25
71938;BME280;59810;48.800;9.086;2023-03-13T11:07:13;96677.72;;;17.47;54.96
71938;BME280;59810;48.800;9.086;2023-03-13T11:09:40;96669.75;;;17.59;54.86
71938;BME280;59810;48.800;9.086;2023-03-13T11:12:16;96667.44;;;17.44;54.29
71938;BME280;59810;48.800;9.086;2023-03-13T11:14:44;96664.53;;;17.32;55.14
71938;BME280;59810;48.800;9.086;2023-03-13T11:17:56;96658.88;;;17.20;55.55
71938;BME280;59810;48.800;9.086;2023-03-13T11:20:21;96665.91;;;17.12;55.74
71938;BME280;59810;48.800;9.086;2023-03-13T11:31:14;96618.13;;;17.23;55.12
71938;BME280;59810;48.800;9.086;2023-03-13T11:36:21;96617.84;;;17.33;55.07
71938;BME280;59810;48.800;9.086;2023-03-13T11:38:59;96603.09;;;17.43;54.12
71938;BME280;59810;48.800;9.086;2023-03-13T11:44:27;96591.72;;;17.58;54.02
71938;BME280;59810;48.800;9.086;2023-03-13T11:55:48;96560.25;;;17.95;52.52
71938;BME280;59810;48.800;9.086;2023-03-13T12:01:15;96548.34;;;18.00;52.58
71938;BME280;59810;48.800;9.086;2023-03-13T12:06:32;96543.28;;;18.37;51.99
71938;BME280;59810;48.800;9.086;2023-03-13T12:09:13;96539.50;;;18.50;51.49
71938;BME280;59810;48.800;9.086;2023-03-13T12:14:30;96514.69;;;18.72;50.37
71938;BME280;59810;48.800;9.086;2023-03-13T12:19:50;96507.03;;;18.57;51.02
71938;BME280;59810;48.800;9.086;2023-03-13T12:24:59;96481.50;;;18.82;50.10
71938;BME280;59810;48.800;9.086;2023-03-13T12:27:30;96474.59;;;19.06;49.85
71938;BME280;59810;48.800;9.086;2023-03-13T12:30:18;96476.19;;;19.27;48.91
71938;BME280;59810;48.800;9.086;2023-03-13T12:32:54;96459.91;;;19.31;48.98
71938;BME280;59810;48.800;9.086;2023-03-13T12:35:27;96451.06;;;19.46;48.83
71938;BME280;59810;48.800;9.086;2023-03-13T12:43:30;96437.06;;;19.81;46.96
71938;BME280;59810;48.800;9.086;2023-03-13T12:51:33;96397.63;;;20.06;46.19
71938;BME280;59810;48.800;9.086;2023-03-13T12:54:13;96401.75;;;20.25;45.83
71938;BME280;59810;48.800;9.086;2023-03-13T12:59:40;96377.31;;;20.07;45.74
71938;BME280;59810;48.800;9.086;2023-03-13T13:02:26;96375.94;;;20.38;44.60
71938;BME280;59810;48.800;9.086;2023-03-13T13:04:53;96368.41;;;20.23;44.58
71938;BME280;59810;48.800;9.086;2023-03-13T13:17:59;96350.41;;;20.74;43.92
71938;BME280;59810;48.800;9.086;2023-03-13T13:23:20;96317.25;;;20.51;44.19
71938;BME280;59810;48.800;9.086;2023-03-13T13:25:47;96323.50;;;20.39;44.32
71938;BME280;59810;48.800;9.086;2023-03-13T13:30:47;96315.84;;;20.33;44.37
71938;BME280;59810;48.800;9.086;2023-03-13T13:35:46;96301.84;;;20.22;44.62
71938;BME280;59810;48.800;9.086;2023-03-13T13:38:40;96295.09;;;20.07;45.04
71938;BME280;59810;48.800;9.086;2023-03-13T13:43:37;96282.56;;;19.94;45.45
71938;BME280;59810;48.800;9.086;2023-03-13T13:46:25;96275.13;;;20.07;45.65
71938;BME280;59810;48.800;9.086;2023-03-13T13:51:31;96264.00;;;20.40;44.76
71938;BME280;59810;48.800;9.086;2023-03-13T13:56:41;96255.63;;;20.48;44.72
71938;BME280;59810;48.800;9.086;2023-03-13T14:01:43;96250.97;;;20.37;44.64
71938;BME280;59810;48.800;9.086;2023-03-13T14:04:25;96245.28;;;20.30;45.08
71938;BME280;59810;48.800;9.086;2023-03-13T14:06:52;96246.63;;;20.36;44.92
71938;BME280;59810;48.800;9.086;2023-03-13T14:11:59;96230.84;;;20.57;44.44
71938;BME280;59810;48.800;9.086;2023-03-13T14:14:24;96221.13;;;20.47;44.53
71938;BME280;59810;48.800;9.086;2023-03-13T14:16:51;96218.66;;;20.42;43.45
71938;BME280;59810;48.800;9.086;2023-03-13T14:19:21;96205.16;;;20.37;43.86
71938;BME280;59810;48.800;9.086;2023-03-13T14:21:50;96211.63;;;20.57;43.97
71938;BME280;59810;48.800;9.086;2023-03-13T14:24:16;96196.31;;;20.84;43.80
71938;BME280;59810;48.800;9.086;2023-03-13T14:26:42;96193.84;;;21.10;43.07
71938;BME280;59810;48.800;9.086;2023-03-13T14:29:16;96176.97;;;21.56;41.44
71938;BME280;59810;48.800;9.086;2023-03-13T14:31:54;96178.22;;;21.93;40.98
71938;BME280;59810;48.800;9.086;2023-03-13T14:34:21;96163.41;;;22.14;39.29
71938;BME280;59810;48.800;9.086;2023-03-13T14:36:51;96180.59;;;22.11;39.12
71938;BME280;59810;48.800;9.086;2023-03-13T14:42:16;96151.16;;;22.30;38.53
71938;BME280;59810;48.800;9.086;2023-03-13T14:44:44;96149.72;;;22.36;38.96
71938;BME280;59810;48.800;9.086;2023-03-13T14:47:31;96145.38;;;22.55;38.54
71938;BME280;59810;48.800;9.086;2023-03-13T14:50:02;96132.72;;;22.73;37.57
71938;BME280;59810;48.800;9.086;2023-03-13T14:52:31;96130.22;;;22.84;37.48
71938;BME280;59810;48.800;9.086;2023-03-13T14:55:01;96133.09;;;22.72;37.35
71938;BME280;59810;48.800;9.086;2023-03-13T14:57:28;96105.50;;;22.26;38.59
71938;BME280;59810;48.800;9.086;2023-03-13T15:08:33;96092.31;;;22.35;38.19
71938;BME280;59810;48.800;9.086;2023-03-13T15:10:58;96071.66;;;22.22;38.83